Ocean Navigator — WSC2552 — position and weather

sailwx.info

Track history (hours):
 
Tides and Currents Weather Stations Pressure Air Temp Water Temp Dewpoint Dewpoint Depression Visibility Wind Speed Wind Dir Waves Ship Positions

Ocean Navigator

Owner: OCEAN NAVIGATOR INC, SEATTLE, WA. More information available from US FCC via Universal Licensing System and Coast Guard Vessel Documentation Center.

Last reported at 2014-Nov-27 07:30 UTC. Time now 2014-Nov-27 08:18 UTC.
Position N 48°25' W 122°44'.

Type: Tow > 200 m length. MMSI: 366358000.

Date/timePositionNaut miles runAvg speedWind from/ knotsBaromVisibWave heightAir tempDewpointWater temp
2014-Nov-27 07:30N 48°25' W 122°44'10 8.7
2014-Nov-27 06:18N 48°15' W 122°48'1010.9
2014-Nov-27 05:24N 48°07' W 122°39'1012.2
2014-Nov-27 04:33N 47°57' W 122°33'211.0
2014-Nov-27 04:22N 47°56' W 122°30'810.2
2014-Nov-27 03:33N 47°49' W 122°26'010.2
2014-Nov-27 03:32N 47°48' W 122°26'10 9.9
2014-Nov-27 02:33N 47°39' W 122°27'4 9.2
2014-Nov-27 02:05N 47°36' W 122°22'2 3.1
2014-Nov-27 01:33N 47°34' W 122°21'0 0.2
2014-Nov-27 01:30N 47°34' W 122°21'1 1.1
2014-Nov-27 00:33N 47°33' W 122°20'0 0.0
2014-Nov-27 00:30N 47°33' W 122°20'0 0.0
2014-Nov-26 23:33N 47°33' W 122°20'0 0.1
2014-Nov-26 23:30N 47°33' W 122°20'0 0.3
2014-Nov-26 22:33N 47°33' W 122°20'0 0.0
2014-Nov-26 22:30N 47°33' W 122°20'0 0.0
2014-Nov-26 21:33N 47°33' W 122°20'0 0.0
2014-Nov-26 21:29N 47°33' W 122°20'0 0.0
2014-Nov-26 20:33N 47°33' W 122°20'0 0.0
2014-Nov-26 20:29N 47°33' W 122°20'0 0.0
2014-Nov-26 19:33N 47°33' W 122°20'0 0.1
2014-Nov-26 19:29N 47°33' W 122°20'0 0.0
2014-Nov-26 18:34N 47°33' W 122°20'0 0.0
2014-Nov-26 18:34N 47°33' W 122°20'0 0.4
2014-Nov-26 17:32N 47°33' W 122°21'0 0.0
2014-Nov-26 17:29N 47°33' W 122°21'0 0.0
2014-Nov-26 16:30N 47°33' W 122°21'0 0.0
2014-Nov-26 14:32N 47°33' W 122°21'0 0.0
2014-Nov-26 14:29N 47°33' W 122°21'0 0.0
2014-Nov-26 13:33N 47°33' W 122°21'0 0.0
2014-Nov-26 13:33N 47°33' W 122°21'0 0.0
2014-Nov-26 12:34N 47°33' W 122°21'0 0.0
2014-Nov-26 12:33N 47°33' W 122°21'0 0.0
2014-Nov-26 11:17N 47°33' W 122°21'0 0.0
2014-Nov-26 11:08N 47°33' W 122°21'0 0.0
2014-Nov-26 10:33N 47°33' W 122°21'0 0.0
2014-Nov-26 10:33N 47°33' W 122°21'0 0.0
2014-Nov-26 09:33N 47°33' W 122°21'0 0.0
2014-Nov-26 09:33N 47°33' W 122°21'0 0.0
2014-Nov-26 08:32N 47°33' W 122°21'0 0.0
2014-Nov-26 08:28N 47°33' W 122°21'0 0.0
2014-Nov-26 07:33N 47°33' W 122°21'0 0.0
2014-Nov-26 07:33N 47°33' W 122°21'0 0.0
2014-Nov-26 06:21N 47°33' W 122°21'0 0.0
2014-Nov-26 03:46N 47°33' W 122°21'0 0.0
2014-Nov-26 03:26N 47°33' W 122°21'0 0.0
2014-Nov-26 01:13N 47°33' W 122°21'0 0.0
2014-Nov-25 23:35N 47°33' W 122°21'0 0.0
2014-Nov-25 23:29N 47°33' W 122°21'0 0.0
2014-Nov-25 23:29N 47°33' W 122°21'0 0.0
2014-Nov-25 22:21N 47°33' W 122°21'0 0.0
2014-Nov-25 21:30N 47°33' W 122°21'0 0.0
2014-Nov-25 21:20N 47°33' W 122°21'0 0.0
2014-Nov-25 20:19N 47°33' W 122°21'0 0.0
2014-Nov-25 20:09N 47°33' W 122°21'2 3.6
2014-Nov-25 19:32N 47°35' W 122°21'0 0.0
2014-Nov-25 19:24N 47°35' W 122°21'0 0.0
2014-Nov-25 18:33N 47°35' W 122°21'0 0.0
2014-Nov-25 18:33N 47°35' W 122°21'2 0.7
2014-Nov-25 15:33N 47°33' W 122°21'0 0.0
2014-Nov-25 15:32N 47°33' W 122°21'3 3.2
2014-Nov-25 14:33N 47°36' W 122°22'0 1.4
2014-Nov-25 14:33N 47°36' W 122°22'7 6.7
2014-Nov-25 13:33N 47°41' W 122°28'0 8.8
2014-Nov-25 13:33N 47°42' W 122°28'10 9.9
2014-Nov-25 12:34N 47°51' W 122°29'0 9.4
2014-Nov-25 12:33N 47°51' W 122°29'9 9.2
2014-Nov-25 11:33N 47°59' W 122°36'29 9.8
2014-Nov-25 08:33N 48°28' W 122°45'1111.2
2014-Nov-25 07:33N 48°39' W 122°44'10 9.7
2014-Nov-25 06:34N 48°47' W 122°53'1010.3
2014-Nov-25 05:33N 48°53' W 123°06'1010.2
2014-Nov-25 04:33N 48°59' W 123°18'9 9.4
2014-Nov-25 03:34N 49°05' W 123°28'8 8.3
2014-Nov-25 02:33N 49°11' W 123°37'8 7.4
2014-Nov-25 01:31N 49°16' W 123°46'8 7.3
2014-Nov-25 00:28N 49°21' W 123°55'8 6.9
2014-Nov-24 23:19N 49°26' W 124°04'8 6.9
2014-Nov-24 22:12N 49°31' W 124°13'5 6.9
2014-Nov-24 21:33N 49°33' W 124°20'15 7.0
2014-Nov-24 19:26N 49°41' W 124°39'7 6.7
2014-Nov-24 18:21N 49°45' W 124°48'92 7.2
2014-Nov-24 05:29N 50°38' W 126°47'10 9.4
2014-Nov-24 04:27N 50°43' W 126°59'8 8.8
2014-Nov-24 03:32N 50°47' W 127°10'7 7.4
2014-Nov-24 02:33N 50°52' W 127°19'7 7.2
2014-Nov-24 01:33N 50°56' W 127°28'7 7.4
2014-Nov-24 00:33N 51°01' W 127°37'8 7.6
2014-Nov-23 23:33N 51°06' W 127°46'8 7.3
2014-Nov-23 22:26N 51°13' W 127°52'15 6.8
2014-Nov-23 20:11N 51°29' W 127°50'188 7.3
2014-Nov-22 18:28N 54°11' W 130°28'7 7.7
2014-Nov-22 17:33N 54°17' W 130°34'  
2014-Nov-17 19:08N 54°31' W 130°43'5 7.7
2014-Nov-17 18:33N 54°26' W 130°40'9 8.7
2014-Nov-17 17:33N 54°18' W 130°35'  
Track history (hours):
 
Tides and Currents Weather Stations Pressure Air Temp Water Temp Dewpoint Dewpoint Depression Visibility Wind Speed Wind Dir Waves Ship Positions

Ocean Navigator

Owner: OCEAN NAVIGATOR INC, SEATTLE, WA. More information available from US FCC via Universal Licensing System and Coast Guard Vessel Documentation Center.

Last reported at 2014-Nov-27 07:30 UTC. Time now 2014-Nov-27 08:18 UTC.
Position N 48°25' W 122°44'.

Type: Tow > 200 m length. MMSI: 366358000.

Date/timePositionNaut miles runAvg speedWind from/ knotsBaromVisibWave heightAir tempDewpointWater temp
2014-Nov-27 07:30N 48°25' W 122°44'10 8.7
2014-Nov-27 06:18N 48°15' W 122°48'1010.9
2014-Nov-27 05:24N 48°07' W 122°39'1012.2
2014-Nov-27 04:33N 47°57' W 122°33'211.0
2014-Nov-27 04:22N 47°56' W 122°30'810.2
2014-Nov-27 03:33N 47°49' W 122°26'010.2
2014-Nov-27 03:32N 47°48' W 122°26'10 9.9
2014-Nov-27 02:33N 47°39' W 122°27'4 9.2
2014-Nov-27 02:05N 47°36' W 122°22'2 3.1
2014-Nov-27 01:33N 47°34' W 122°21'0 0.2
2014-Nov-27 01:30N 47°34' W 122°21'1 1.1
2014-Nov-27 00:33N 47°33' W 122°20'0 0.0
2014-Nov-27 00:30N 47°33' W 122°20'0 0.0
2014-Nov-26 23:33N 47°33' W 122°20'0 0.1
2014-Nov-26 23:30N 47°33' W 122°20'0 0.3
2014-Nov-26 22:33N 47°33' W 122°20'0 0.0
2014-Nov-26 22:30N 47°33' W 122°20'0 0.0
2014-Nov-26 21:33N 47°33' W 122°20'0 0.0
2014-Nov-26 21:29N 47°33' W 122°20'0 0.0
2014-Nov-26 20:33N 47°33' W 122°20'0 0.0
2014-Nov-26 20:29N 47°33' W 122°20'0 0.0
2014-Nov-26 19:33N 47°33' W 122°20'0 0.1
2014-Nov-26 19:29N 47°33' W 122°20'0 0.0
2014-Nov-26 18:34N 47°33' W 122°20'0 0.0
2014-Nov-26 18:34N 47°33' W 122°20'0 0.4
2014-Nov-26 17:32N 47°33' W 122°21'0 0.0
2014-Nov-26 17:29N 47°33' W 122°21'0 0.0
2014-Nov-26 16:30N 47°33' W 122°21'0 0.0
2014-Nov-26 14:32N 47°33' W 122°21'0 0.0
2014-Nov-26 14:29N 47°33' W 122°21'0 0.0
2014-Nov-26 13:33N 47°33' W 122°21'0 0.0
2014-Nov-26 13:33N 47°33' W 122°21'0 0.0
2014-Nov-26 12:34N 47°33' W 122°21'0 0.0
2014-Nov-26 12:33N 47°33' W 122°21'0 0.0
2014-Nov-26 11:17N 47°33' W 122°21'0 0.0
2014-Nov-26 11:08N 47°33' W 122°21'0 0.0
2014-Nov-26 10:33N 47°33' W 122°21'0 0.0
2014-Nov-26 10:33N 47°33' W 122°21'0 0.0
2014-Nov-26 09:33N 47°33' W 122°21'0 0.0
2014-Nov-26 09:33N 47°33' W 122°21'0 0.0
2014-Nov-26 08:32N 47°33' W 122°21'0 0.0
2014-Nov-26 08:28N 47°33' W 122°21'0 0.0
2014-Nov-26 07:33N 47°33' W 122°21'0 0.0
2014-Nov-26 07:33N 47°33' W 122°21'0 0.0
2014-Nov-26 06:21N 47°33' W 122°21'0 0.0
2014-Nov-26 03:46N 47°33' W 122°21'0 0.0
2014-Nov-26 03:26N 47°33' W 122°21'0 0.0
2014-Nov-26 01:13N 47°33' W 122°21'0 0.0
2014-Nov-25 23:35N 47°33' W 122°21'0 0.0
2014-Nov-25 23:29N 47°33' W 122°21'0 0.0
2014-Nov-25 23:29N 47°33' W 122°21'0 0.0
2014-Nov-25 22:21N 47°33' W 122°21'0 0.0
2014-Nov-25 21:30N 47°33' W 122°21'0 0.0
2014-Nov-25 21:20N 47°33' W 122°21'0 0.0
2014-Nov-25 20:19N 47°33' W 122°21'0 0.0
2014-Nov-25 20:09N 47°33' W 122°21'2 3.6
2014-Nov-25 19:32N 47°35' W 122°21'0 0.0
2014-Nov-25 19:24N 47°35' W 122°21'0 0.0
2014-Nov-25 18:33N 47°35' W 122°21'0 0.0
2014-Nov-25 18:33N 47°35' W 122°21'2 0.7
2014-Nov-25 15:33N 47°33' W 122°21'0 0.0
2014-Nov-25 15:32N 47°33' W 122°21'3 3.2
2014-Nov-25 14:33N 47°36' W 122°22'0 1.4
2014-Nov-25 14:33N 47°36' W 122°22'7 6.7
2014-Nov-25 13:33N 47°41' W 122°28'0 8.8
2014-Nov-25 13:33N 47°42' W 122°28'10 9.9
2014-Nov-25 12:34N 47°51' W 122°29'0 9.4
2014-Nov-25 12:33N 47°51' W 122°29'9 9.2
2014-Nov-25 11:33N 47°59' W 122°36'29 9.8
2014-Nov-25 08:33N 48°28' W 122°45'1111.2
2014-Nov-25 07:33N 48°39' W 122°44'10 9.7
2014-Nov-25 06:34N 48°47' W 122°53'1010.3
2014-Nov-25 05:33N 48°53' W 123°06'1010.2
2014-Nov-25 04:33N 48°59' W 123°18'9 9.4
2014-Nov-25 03:34N 49°05' W 123°28'8 8.3
2014-Nov-25 02:33N 49°11' W 123°37'8 7.4
2014-Nov-25 01:31N 49°16' W 123°46'8 7.3
2014-Nov-25 00:28N 49°21' W 123°55'8 6.9
2014-Nov-24 23:19N 49°26' W 124°04'8 6.9
2014-Nov-24 22:12N 49°31' W 124°13'5 6.9
2014-Nov-24 21:33N 49°33' W 124°20'15 7.0
2014-Nov-24 19:26N 49°41' W 124°39'7 6.7
2014-Nov-24 18:21N 49°45' W 124°48'92 7.2
2014-Nov-24 05:29N 50°38' W 126°47'10 9.4
2014-Nov-24 04:27N 50°43' W 126°59'8 8.8
2014-Nov-24 03:32N 50°47' W 127°10'7 7.4
2014-Nov-24 02:33N 50°52' W 127°19'7 7.2
2014-Nov-24 01:33N 50°56' W 127°28'7 7.4
2014-Nov-24 00:33N 51°01' W 127°37'8 7.6
2014-Nov-23 23:33N 51°06' W 127°46'8 7.3
2014-Nov-23 22:26N 51°13' W 127°52'15 6.8
2014-Nov-23 20:11N 51°29' W 127°50'188 7.3
2014-Nov-22 18:28N 54°11' W 130°28'7 7.7
2014-Nov-22 17:33N 54°17' W 130°34'  
2014-Nov-17 19:08N 54°31' W 130°43'5 7.7
2014-Nov-17 18:33N 54°26' W 130°40'9 8.7
2014-Nov-17 17:33N 54°18' W 130°35'  

Dump ship's entire track history